Time;durP1;ratioP1;P1;durP2;ratioP2;P2;SDS_P1;SDS_P2;PMS_P1;PMS_P2;Temp;Humidity;BMP_temperature;BMP_pressure;BME280_temperature;BME280_humidity;BME280_pressure;Samples;Min_cycle;Max_cycle;Signal;HPM_P1;HPM_P2
2022/03/24 00:01:52;;;;;;;44.28;19.58;;;;;;;7.27;nan;103112.88;4975014;28;20085;-77
2022/03/24 00:04:17;;;;;;;36.35;19.30;;;;;;;7.21;nan;103110.06;4978012;28;20494;-76
2022/03/24 00:06:43;;;;;;;31.15;17.45;;;;;;;7.13;nan;103104.72;4980503;28;20610;-76
2022/03/24 00:09:08;;;;;;;42.38;19.20;;;;;;;7.05;nan;103102.06;4978796;28;20107;-77
2022/03/24 00:11:34;;;;;;;40.22;18.95;;;;;;;6.96;nan;103102.06;4979920;28;20428;-75
2022/03/24 00:14:00;;;;;;;37.28;18.20;;;;;;;6.91;nan;103104.41;4976710;28;20026;-74
2022/03/24 00:16:26;;;;;;;37.90;18.40;;;;;;;6.85;nan;103112.22;4979179;28;20061;-74
2022/03/24 00:18:52;;;;;;;35.78;17.92;;;;;;;6.79;nan;103108.38;4977635;28;20036;-76
2022/03/24 00:21:18;;;;;;;37.50;18.65;;;;;;;6.73;nan;103111.72;4979553;28;20022;-76
2022/03/24 00:23:43;;;;;;;39.67;19.70;;;;;;;6.66;nan;103100.91;4978947;28;20041;-76
2022/03/24 00:26:09;;;;;;;32.17;17.63;;;;;;;6.60;nan;103109.53;4979766;28;20026;-76
2022/03/24 00:28:34;;;;;;;41.30;19.60;;;;;;;6.55;nan;103108.34;4980023;28;20022;-75
2022/03/24 00:31:01;;;;;;;39.85;19.42;;;;;;;6.48;nan;103110.84;4975243;28;20667;-75
2022/03/24 00:33:27;;;;;;;40.30;20.58;;;;;;;6.43;nan;103112.31;4977683;28;20034;-76
2022/03/24 00:35:53;;;;;;;39.40;20.20;;;;;;;6.35;nan;103103.31;4978084;28;20027;-75
2022/03/24 00:38:19;;;;;;;36.85;18.80;;;;;;;6.31;nan;103104.66;4977813;28;20038;-76
2022/03/24 00:40:45;;;;;;;42.00;21.38;;;;;;;6.27;nan;103113.09;4975101;28;20018;-76
2022/03/24 00:43:11;;;;;;;40.13;19.83;;;;;;;6.22;nan;103110.94;4979049;28;20027;-75
2022/03/24 00:45:39;;;;;;;38.97;19.95;;;;;;;6.17;nan;103107.94;4977261;28;20498;-75
2022/03/24 00:48:05;;;;;;;41.63;21.25;;;;;;;6.11;nan;103105.91;4978170;28;20043;-75
2022/03/24 00:50:30;;;;;;;44.15;21.88;;;;;;;6.07;nan;103105.38;4978807;28;20023;-75
2022/03/24 00:52:56;;;;;;;39.85;20.33;;;;;;;6.02;nan;103106.88;4983648;28;20640;-75
2022/03/24 00:55:22;;;;;;;41.47;21.73;;;;;;;5.98;nan;103106.34;4979023;28;20035;-75
2022/03/24 00:57:49;;;;;;;43.97;21.45;;;;;;;5.93;nan;103102.53;4974811;28;20022;-75
2022/03/24 01:00:17;;;;;;;40.15;20.70;;;;;;;5.88;nan;103094.97;4980316;28;20465;-75
2022/03/24 01:02:44;;;;;;;40.05;20.85;;;;;;;5.83;nan;103097.28;4972184;28;20034;-75
2022/03/24 01:05:15;;;;;;;37.83;20.42;;;;;;;5.79;nan;103103.06;4976922;28;20026;-75
2022/03/24 01:07:42;;;;;;;38.40;20.95;;;;;;;5.73;nan;103102.69;4974581;28;20065;-75
2022/03/24 01:10:09;;;;;;;41.90;20.15;;;;;;;5.67;nan;103108.66;4977202;28;20702;-75
2022/03/24 01:12:35;;;;;;;37.33;19.45;;;;;;;5.62;nan;103103.00;4976588;28;20023;-75
2022/03/24 01:15:07;;;;;;;40.67;19.73;;;;;;;5.55;nan;103101.94;4976203;28;20030;-75
2022/03/24 01:17:34;;;;;;;40.65;20.58;;;;;;;5.50;nan;103092.78;4975779;28;20033;-75
2022/03/24 01:19:59;;;;;;;39.22;19.55;;;;;;;5.46;nan;103097.56;4973949;28;20026;-75
2022/03/24 01:22:25;;;;;;;39.85;20.80;;;;;;;5.41;nan;103098.06;4978540;28;20019;-75
2022/03/24 01:24:51;;;;;;;44.13;20.88;;;;;;;5.37;nan;103104.66;4975045;28;20048;-75
2022/03/24 01:27:17;;;;;;;41.40;20.15;;;;;;;5.33;nan;103102.47;4976253;28;20031;-75
2022/03/24 01:29:42;;;;;;;42.83;20.77;;;;;;;5.26;nan;103088.97;4977627;28;20030;-75
2022/03/24 01:32:08;;;;;;;38.75;20.80;;;;;;;5.23;nan;103091.13;4974625;28;20061;-75
2022/03/24 01:34:35;;;;;;;38.63;19.52;;;;;;;5.19;nan;103095.88;4975557;28;20063;-75
2022/03/24 01:37:00;;;;;;;42.00;20.00;;;;;;;5.13;nan;103097.34;4975027;28;20024;-75
2022/03/24 01:39:26;;;;;;;39.63;20.38;;;;;;;5.07;nan;103082.03;4975381;28;20029;-74
2022/03/24 01:41:52;;;;;;;45.15;20.77;;;;;;;5.03;nan;103090.47;4977670;28;20046;-75
2022/03/24 01:44:19;;;;;;;38.20;19.50;;;;;;;4.98;nan;103080.28;4976000;28;20097;-74
2022/03/24 01:47:15;;;;;;;40.25;18.77;;;;;;;4.87;nan;103085.03;4976444;28;20069;-75
2022/03/24 01:49:44;;;;;;;43.35;21.00;;;;;;;4.90;nan;103085.53;4971759;28;20654;-74
2022/03/24 01:52:12;;;;;;;38.67;19.00;;;;;;;4.87;nan;103082.38;4978977;28;20548;-75
2022/03/24 01:54:43;;;;;;;41.67;19.90;;;;;;;4.82;nan;103080.16;4977086;28;20138;-75
2022/03/24 01:57:13;;;;;;;40.60;20.50;;;;;;;4.76;nan;103078.94;4974334;28;20030;-75
2022/03/24 01:59:40;;;;;;;42.78;20.40;;;;;;;4.75;nan;103081.75;4974518;28;20022;-75
2022/03/24 02:02:07;;;;;;;46.33;20.80;;;;;;;4.72;nan;103082.06;4974743;28;20866;-75
2022/03/24 02:04:35;;;;;;;43.10;20.80;;;;;;;4.67;nan;103084.31;4975737;28;20026;-74
2022/03/24 02:07:01;;;;;;;43.33;21.08;;;;;;;4.62;nan;103075.97;4975365;28;20369;-75
2022/03/24 02:09:27;;;;;;;41.88;21.33;;;;;;;4.57;nan;103072.97;4974919;28;20026;-75
2022/03/24 02:11:53;;;;;;;42.90;20.92;;;;;;;4.53;nan;103078.56;4974169;28;20034;-74
2022/03/24 02:14:18;;;;;;;42.28;20.85;;;;;;;4.48;nan;103072.88;4977878;28;20049;-75
2022/03/24 02:16:47;;;;;;;41.33;19.52;;;;;;;4.41;nan;103082.44;4974182;28;20030;-74
2022/03/24 02:19:20;;;;;;;43.92;20.83;;;;;;;4.38;nan;103077.44;4974289;28;20069;-74
2022/03/24 02:21:46;;;;;;;36.38;18.90;;;;;;;4.33;nan;103079.69;4976294;28;20092;-74
2022/03/24 02:24:14;;;;;;;37.00;18.83;;;;;;;4.29;nan;103080.97;4976379;28;20559;-74
2022/03/24 02:26:42;;;;;;;42.42;20.02;;;;;;;4.24;nan;103078.75;4975781;28;20468;-74
2022/03/24 02:29:10;;;;;;;40.22;19.80;;;;;;;4.21;nan;103083.53;4975068;28;20109;-74
2022/03/24 02:31:38;;;;;;;40.22;19.45;;;;;;;4.17;nan;103084.81;4977569;28;20030;-74
2022/03/24 02:36:53;;;;;;;44.90;19.50;;;;;;;4.04;nan;103079.03;4976898;28;20268;-74
2022/03/24 02:39:19;;;;;;;38.00;19.27;;;;;;;4.02;nan;103081.00;4970395;28;20022;-74
2022/03/24 02:41:50;;;;;;;38.72;20.50;;;;;;;3.99;nan;103091.91;4972870;28;20022;-74
2022/03/24 02:44:17;;;;;;;42.97;21.50;;;;;;;3.94;nan;103087.84;4974080;28;20062;-74
2022/03/24 02:46:47;;;;;;;39.90;21.85;;;;;;;3.90;nan;103091.78;4974465;28;20104;-74
2022/03/24 02:49:14;;;;;;;44.35;20.23;;;;;;;3.89;nan;103083.97;4974583;28;20113;-74
2022/03/24 02:51:40;;;;;;;37.67;19.60;;;;;;;3.84;nan;103081.78;4974615;28;20054;-74
2022/03/24 02:54:07;;;;;;;40.08;20.38;;;;;;;3.82;nan;103085.56;4974151;28;20068;-74
2022/03/24 02:56:33;;;;;;;40.65;20.45;;;;;;;3.77;nan;103085.16;4971472;28;20481;-74
2022/03/24 02:58:58;;;;;;;40.33;21.67;;;;;;;3.74;nan;103088.94;4976311;28;20041;-74
2022/03/24 03:01:25;;;;;;;45.50;22.30;;;;;;;3.71;nan;103085.75;4973785;28;21739;-74
2022/03/24 03:03:52;;;;;;;46.75;21.05;;;;;;;3.66;nan;103091.47;4975235;28;20788;-74
2022/03/24 03:06:19;;;;;;;45.00;21.75;;;;;;;3.64;nan;103080.19;4974276;28;20034;-74
2022/03/24 03:08:46;;;;;;;45.33;22.65;;;;;;;3.62;nan;103084.81;4974687;28;20049;-74
2022/03/24 03:11:12;;;;;;;47.20;22.23;;;;;;;3.58;nan;103088.69;4972627;28;20045;-74
2022/03/24 03:13:37;;;;;;;44.40;21.15;;;;;;;3.54;nan;103080.22;4970797;28;20475;-74
2022/03/24 03:16:04;;;;;;;41.03;21.48;;;;;;;3.52;nan;103086.66;4975642;28;20038;-73
2022/03/24 03:18:32;;;;;;;45.92;22.90;;;;;;;3.50;nan;103078.00;4975276;28;20031;-74
2022/03/24 03:20:59;;;;;;;45.58;22.15;;;;;;;3.48;nan;103087.91;4974745;28;20037;-74
2022/03/24 03:23:25;;;;;;;47.80;21.95;;;;;;;3.45;nan;103080.25;4974979;28;20018;-74
2022/03/24 03:25:51;;;;;;;46.03;21.67;;;;;;;3.41;nan;103078.84;4970622;28;20030;-74
2022/03/24 03:28:16;;;;;;;44.00;20.92;;;;;;;3.38;nan;103081.78;4971838;28;20030;-74
2022/03/24 03:30:43;;;;;;;52.13;22.52;;;;;;;3.34;nan;103082.09;4974985;28;20034;-74
2022/03/24 03:33:10;;;;;;;50.20;20.90;;;;;;;3.31;nan;103081.53;4974956;28;20034;-74
2022/03/24 03:35:36;;;;;;;47.28;21.98;;;;;;;3.27;nan;103083.66;4979057;28;20073;-74
2022/03/24 03:38:02;;;;;;;37.42;19.48;;;;;;;3.23;nan;103084.91;4973078;28;20195;-74
2022/03/24 03:40:28;;;;;;;44.33;20.83;;;;;;;3.20;nan;103087.00;4975702;28;20500;-73
2022/03/24 03:42:53;;;;;;;42.92;20.60;;;;;;;3.15;nan;103090.06;4976003;28;20157;-74
2022/03/24 03:45:19;;;;;;;42.50;22.08;;;;;;;3.11;nan;103083.41;4980690;28;20030;-76
2022/03/24 03:47:45;;;;;;;42.50;20.42;;;;;;;3.09;nan;103088.00;4984269;28;20097;-76
2022/03/24 03:50:10;;;;;;;46.08;22.52;;;;;;;3.06;nan;103080.34;4987027;28;20592;-76
2022/03/24 03:52:37;;;;;;;44.88;23.63;;;;;;;3.03;nan;103088.56;4984386;28;20026;-77
2022/03/24 03:55:04;;;;;;;48.47;22.20;;;;;;;2.97;nan;103083.81;4981137;28;20396;-77
2022/03/24 03:57:29;;;;;;;49.10;24.95;;;;;;;2.85;nan;103084.94;4985337;28;20037;-76
2022/03/24 03:59:55;;;;;;;48.33;25.50;;;;;;;2.79;nan;103085.50;4981020;28;20030;-76
2022/03/24 04:02:20;;;;;;;47.67;25.55;;;;;;;2.78;nan;103086.50;4981145;28;20056;-77
2022/03/24 04:04:46;;;;;;;47.80;25.42;;;;;;;2.78;nan;103089.13;4981010;28;20069;-76
2022/03/24 04:07:12;;;;;;;48.38;25.10;;;;;;;2.77;nan;103084.81;4981984;28;20121;-76
2022/03/24 04:09:38;;;;;;;46.40;24.45;;;;;;;2.75;nan;103090.25;4987126;28;20038;-76
2022/03/24 04:12:05;;;;;;;45.45;24.55;;;;;;;2.75;nan;103100.00;4978807;28;20053;-77
2022/03/24 04:14:32;;;;;;;46.50;24.52;;;;;;;2.75;nan;103094.72;4985083;28;20468;-76
2022/03/24 04:16:58;;;;;;;55.17;27.58;;;;;;;2.73;nan;103093.03;4977804;28;20615;-76
2022/03/24 04:19:25;;;;;;;48.97;24.95;;;;;;;2.70;nan;103093.31;4981352;28;20109;-76
2022/03/24 04:21:51;;;;;;;56.78;27.08;;;;;;;2.67;nan;103088.28;4978534;28;20445;-76
2022/03/24 04:24:16;;;;;;;49.97;25.65;;;;;;;2.64;nan;103093.84;4981921;28;20066;-76
2022/03/24 04:26:42;;;;;;;56.05;25.27;;;;;;;2.62;nan;103089.69;4983193;28;20034;-75
2022/03/24 04:29:07;;;;;;;45.45;25.05;;;;;;;2.59;nan;103096.09;4976537;28;20392;-76
2022/03/24 04:31:33;;;;;;;51.58;26.00;;;;;;;2.56;nan;103091.09;4980593;28;20534;-76
2022/03/24 04:33:59;;;;;;;44.35;24.35;;;;;;;2.53;nan;103101.13;4981472;28;20023;-76
2022/03/24 04:36:25;;;;;;;43.47;23.60;;;;;;;2.50;nan;103094.25;4983151;28;20041;-76
2022/03/24 04:38:50;;;;;;;40.63;22.30;;;;;;;2.47;nan;103097.19;4977961;28;20141;-76
2022/03/24 04:41:16;;;;;;;39.17;21.52;;;;;;;2.43;nan;103093.97;4980365;28;20034;-76
2022/03/24 04:43:42;;;;;;;39.55;22.33;;;;;;;2.40;nan;103096.06;4981297;28;20052;-76
2022/03/24 04:46:09;;;;;;;41.03;23.17;;;;;;;2.37;nan;103096.34;4978442;28;20030;-76
2022/03/24 04:48:37;;;;;;;44.65;22.95;;;;;;;2.34;nan;103092.16;4980653;28;20081;-77
2022/03/24 04:51:06;;;;;;;45.13;24.00;;;;;;;2.31;nan;103095.06;4978862;28;20118;-76
2022/03/24 04:53:32;;;;;;;45.55;24.70;;;;;;;2.30;nan;103092.56;4981584;28;20030;-76
2022/03/24 04:55:58;;;;;;;41.40;22.70;;;;;;;2.27;nan;103098.13;4981618;28;20023;-76
2022/03/24 04:58:23;;;;;;;47.72;23.05;;;;;;;2.24;nan;103090.47;4981932;28;20639;-76
2022/03/24 05:00:49;;;;;;;42.17;22.92;;;;;;;2.21;nan;103096.03;4982722;28;20100;-76
2022/03/24 05:03:14;;;;;;;44.15;24.73;;;;;;;2.19;nan;103100.63;4978585;28;20580;-76
2022/03/24 05:05:41;;;;;;;45.88;24.58;;;;;;;2.15;nan;103092.09;4983711;28;20073;-77
2022/03/24 05:08:06;;;;;;;47.38;26.50;;;;;;;2.13;nan;103094.88;4977630;28;20037;-76
2022/03/24 05:10:32;;;;;;;49.58;26.67;;;;;;;2.10;nan;103092.50;4980116;28;20523;-77
2022/03/24 05:12:58;;;;;;;47.17;25.38;;;;;;;2.06;nan;103085.81;4980116;28;20026;-76
2022/03/24 05:15:23;;;;;;;44.20;24.67;;;;;;;2.04;nan;103095.72;4984189;28;20030;-76
2022/03/24 05:17:50;;;;;;;44.65;25.80;;;;;;;2.01;nan;103093.34;4976910;28;20037;-76
2022/03/24 05:20:16;;;;;;;45.65;25.60;;;;;;;2.02;nan;103102.09;4978223;28;20035;-76
2022/03/24 05:22:42;;;;;;;46.88;26.52;;;;;;;1.99;nan;103092.63;4986894;28;20047;-76
2022/03/24 05:25:08;;;;;;;38.40;22.52;;;;;;;1.98;nan;103092.78;4980762;28;20030;-76
2022/03/24 05:27:35;;;;;;;40.20;24.27;;;;;;;1.95;nan;103100.94;4977026;28;20496;-76
2022/03/24 05:30:00;;;;;;;40.13;21.95;;;;;;;1.91;nan;103094.25;4976970;28;20060;-76
2022/03/24 05:32:27;;;;;;;42.00;24.05;;;;;;;1.90;nan;103097.88;4984445;28;20504;-76
2022/03/24 05:34:53;;;;;;;44.35;25.27;;;;;;;1.90;nan;103108.44;4982395;28;20045;-76
2022/03/24 05:37:19;;;;;;;55.45;28.55;;;;;;;1.87;nan;103104.28;4984257;28;20027;-76
2022/03/24 05:39:45;;;;;;;44.63;25.35;;;;;;;1.80;nan;103095.22;4981133;28;20210;-75
2022/03/24 05:42:10;;;;;;;46.03;25.65;;;;;;;1.80;nan;103101.34;4981566;28;20034;-76
2022/03/24 05:44:36;;;;;;;43.67;25.55;;;;;;;1.80;nan;103100.50;4978938;28;20074;-75
2022/03/24 05:47:02;;;;;;;46.17;24.40;;;;;;;1.79;nan;103106.72;4976387;28;20189;-75
2022/03/24 05:49:28;;;;;;;42.83;24.30;;;;;;;1.80;nan;103103.16;4980648;28;20093;-76
2022/03/24 05:51:54;;;;;;;46.42;25.83;;;;;;;1.80;nan;103108.44;4981484;28;20513;-76
2022/03/24 05:54:20;;;;;;;47.30;24.50;;;;;;;1.80;nan;103109.25;4979588;28;20035;-76
2022/03/24 05:56:46;;;;;;;43.42;23.73;;;;;;;1.82;nan;103106.50;4983665;28;20034;-76
2022/03/24 05:59:13;;;;;;;39.47;23.40;;;;;;;1.85;nan;103108.84;4978586;28;20521;-76
2022/03/24 06:01:41;;;;;;;42.88;24.05;;;;;;;1.87;nan;103106.91;4981476;28;20027;-75
2022/03/24 06:04:08;;;;;;;37.92;23.52;;;;;;;1.91;nan;103113.59;4975865;28;20436;-75
2022/03/24 06:06:34;;;;;;;38.63;23.00;;;;;;;1.94;nan;103118.63;4972292;28;20493;-75
2022/03/24 06:09:03;;;;;;;38.47;21.85;;;;;;;1.96;nan;103124.59;4981880;28;20530;-76
2022/03/24 06:11:30;;;;;;;43.03;22.50;;;;;;;1.98;nan;103117.41;4983289;28;20038;-76
2022/03/24 06:13:56;;;;;;;37.63;21.85;;;;;;;2.02;nan;103124.09;4977934;28;20030;-75
2022/03/24 06:16:22;;;;;;;39.50;22.10;;;;;;;2.06;nan;103124.66;4983968;28;20061;-76
2022/03/24 06:18:47;;;;;;;40.42;22.05;;;;;;;2.09;nan;103127.03;4981272;28;21617;-76
2022/03/24 06:21:14;;;;;;;41.88;23.27;;;;;;;2.11;nan;103123.28;4975259;28;20030;-76
2022/03/24 06:23:40;;;;;;;46.90;25.17;;;;;;;2.14;nan;103122.16;4979792;28;20461;-76
2022/03/24 06:26:05;;;;;;;49.45;26.90;;;;;;;2.12;nan;103124.94;4982172;28;20026;-76
2022/03/24 06:28:31;;;;;;;50.33;24.70;;;;;;;2.11;nan;103123.28;4978887;28;20026;-76
2022/03/24 06:30:57;;;;;;;54.53;28.17;;;;;;;2.13;nan;103123.97;4974533;28;20538;-76
2022/03/24 06:33:23;;;;;;;55.70;28.45;;;;;;;2.17;nan;103121.91;4984166;28;20038;-77
2022/03/24 06:35:49;;;;;;;58.92;28.65;;;;;;;2.20;nan;103124.28;4985642;28;20132;-76
2022/03/24 06:38:17;;;;;;;58.45;28.60;;;;;;;2.21;nan;103114.56;4976781;28;20113;-76
2022/03/24 06:40:42;;;;;;;54.88;28.10;;;;;;;2.25;nan;103124.72;4976372;28;20077;-76
2022/03/24 06:43:10;;;;;;;58.38;28.33;;;;;;;2.30;nan;103122.50;4975613;28;20505;-76
2022/03/24 06:45:37;;;;;;;55.65;27.80;;;;;;;2.34;nan;103120.44;4983447;28;20030;-76
2022/03/24 06:48:07;;;;;;;59.05;29.65;;;;;;;2.37;nan;103117.50;4982662;28;20037;-76
2022/03/24 06:50:33;;;;;;;59.80;29.63;;;;;;;2.43;nan;103122.25;4974151;28;20039;-76
2022/03/24 06:52:59;;;;;;;58.67;28.15;;;;;;;2.48;nan;103120.03;4979600;28;20634;-76
2022/03/24 06:55:24;;;;;;;58.53;29.08;;;;;;;2.51;nan;103130.31;4984750;28;20034;-76
2022/03/24 06:57:50;;;;;;;59.22;28.60;;;;;;;2.56;nan;103132.59;4974083;28;20296;-77
2022/03/24 07:00:15;;;;;;;53.80;27.00;;;;;;;2.61;nan;103131.19;4979284;28;20460;-77
2022/03/24 07:02:43;;;;;;;47.80;25.55;;;;;;;2.66;nan;103131.59;4987143;28;20019;-77
2022/03/24 07:05:11;;;;;;;51.45;26.58;;;;;;;2.72;nan;103136.38;4979205;28;20077;-77
2022/03/24 07:07:38;;;;;;;54.05;27.77;;;;;;;2.75;nan;103131.78;4981321;28;20060;-77
2022/03/24 07:10:05;;;;;;;54.55;27.27;;;;;;;2.79;nan;103130.53;4975572;28;20027;-77
2022/03/24 07:12:30;;;;;;;56.17;27.15;;;;;;;2.83;nan;103123.97;4983200;28;20041;-77
2022/03/24 07:14:56;;;;;;;52.80;27.77;;;;;;;2.89;nan;103126.06;4988175;28;20022;-78
2022/03/24 07:17:23;;;;;;;58.30;30.42;;;;;;;2.97;nan;103134.13;4985508;28;20023;-77
2022/03/24 07:19:49;;;;;;;56.00;28.05;;;;;;;3.01;nan;103128.41;4986934;28;20026;-77
2022/03/24 07:22:14;;;;;;;55.30;28.27;;;;;;;3.07;nan;103129.69;4976929;28;20413;-79
2022/03/24 07:24:40;;;;;;;53.20;26.70;;;;;;;3.17;nan;103130.50;4979752;28;20019;-77
2022/03/24 07:27:06;;;;;;;59.05;28.95;;;;;;;3.24;nan;103131.63;4979947;28;20396;-78
2022/03/24 07:29:31;;;;;;;56.83;28.92;;;;;;;3.36;nan;103127.00;4983555;28;20026;-77
2022/03/24 07:31:59;;;;;;;59.83;31.70;;;;;;;3.49;nan;103127.53;4983442;28;20026;-77
2022/03/24 07:34:25;;;;;;;57.25;29.42;;;;;;;3.64;nan;103128.75;4979789;28;20105;-77
2022/03/24 07:36:51;;;;;;;59.28;30.25;;;;;;;3.78;nan;103127.44;4982040;28;20026;-78
2022/03/24 07:39:17;;;;;;;51.58;28.08;;;;;;;3.94;nan;103132.13;4991344;28;20045;-77
2022/03/24 07:41:42;;;;;;;59.85;28.13;;;;;;;4.10;nan;103126.19;4990276;28;20034;-78
2022/03/24 07:44:08;;;;;;;54.80;27.55;;;;;;;4.26;nan;103131.69;4978700;28;20033;-78
2022/03/24 07:46:34;;;;;;;53.95;27.42;;;;;;;4.40;nan;103131.19;4978094;28;20031;-78
2022/03/24 07:49:00;;;;;;;52.50;26.67;;;;;;;4.55;nan;103126.22;4984886;28;20026;-78
2022/03/24 07:51:25;;;;;;;52.78;26.08;;;;;;;4.69;nan;103125.69;4984773;28;20109;-79
2022/03/24 07:53:54;;;;;;;61.63;29.17;;;;;;;4.83;nan;103124.31;4977767;28;20027;-78
2022/03/24 07:56:26;;;;;;;55.20;26.83;;;;;;;4.95;nan;103123.09;4984896;28;20089;-79
2022/03/24 07:58:54;;;;;;;54.65;27.35;;;;;;;5.12;nan;103122.25;4982342;28;20022;-78
2022/03/24 08:01:31;;;;;;;55.42;27.77;;;;;;;5.25;nan;103126.34;4983832;28;20039;-78
2022/03/24 08:04:01;;;;;;;55.47;27.33;;;;;;;5.41;nan;103118.50;4987903;28;20114;-78
2022/03/24 08:06:28;;;;;;;52.05;25.23;;;;;;;5.59;nan;103121.09;4984354;28;20490;-78
2022/03/24 08:08:54;;;;;;;53.20;27.55;;;;;;;5.75;nan;103127.34;4980376;28;20377;-78
2022/03/24 08:11:19;;;;;;;54.95;26.38;;;;;;;5.91;nan;103123.09;4984030;28;20057;-78
2022/03/24 08:13:50;;;;;;;52.67;27.98;;;;;;;6.06;nan;103129.50;4982424;28;20031;-78
2022/03/24 08:16:16;;;;;;;61.72;28.02;;;;;;;6.20;nan;103128.91;4986578;28;20156;-78
2022/03/24 08:18:41;;;;;;;49.97;27.10;;;;;;;6.33;nan;103123.94;4989866;28;20101;-78
2022/03/24 08:21:08;;;;;;;52.63;27.02;;;;;;;6.51;nan;103126.50;4982867;28;20026;-78
2022/03/24 08:23:33;;;;;;;56.88;28.13;;;;;;;6.65;nan;103125.88;4980352;28;20019;-78
2022/03/24 08:25:59;;;;;;;54.15;27.08;;;;;;;6.82;nan;103128.53;4981839;28;20084;-79
2022/03/24 08:28:24;;;;;;;54.33;27.38;;;;;;;6.98;nan;103132.03;4984981;28;20037;-78
2022/03/24 08:30:50;;;;;;;55.60;26.05;;;;;;;7.17;nan;103130.03;4983037;28;20030;-78
2022/03/24 08:33:16;;;;;;;51.60;26.25;;;;;;;7.33;nan;103124.69;4980524;28;20030;-78
2022/03/24 08:35:42;;;;;;;54.75;27.65;;;;;;;7.49;nan;103122.00;4978041;28;20432;-78
2022/03/24 08:38:10;;;;;;;50.22;27.08;;;;;;;7.65;nan;103129.16;4982569;28;20034;-79
2022/03/24 08:40:36;;;;;;;51.05;26.17;;;;;;;7.83;nan;103120.94;4984938;28;20476;-78
2022/03/24 08:43:03;;;;;;;51.83;25.42;;;;;;;7.96;nan;103126.56;4982130;28;20098;-78
2022/03/24 08:45:30;;;;;;;50.72;27.27;;;;;;;8.10;nan;103128.50;4984562;28;20066;-78
2022/03/24 08:47:56;;;;;;;48.85;25.75;;;;;;;8.25;nan;103125.91;4987125;28;20023;-78
2022/03/24 08:50:23;;;;;;;49.28;25.38;;;;;;;8.36;nan;103120.22;4984241;28;20034;-79
2022/03/24 08:52:48;;;;;;;51.78;26.30;;;;;;;8.46;nan;103134.22;4980304;28;20025;-79
2022/03/24 08:55:15;;;;;;;48.38;26.10;;;;;;;8.58;nan;103131.13;4983480;28;20022;-78
2022/03/24 08:57:42;;;;;;;48.47;25.42;;;;;;;8.69;nan;103131.56;4985255;28;20026;-80
2022/03/24 09:00:12;;;;;;;45.83;24.55;;;;;;;8.83;nan;103126.47;4983530;28;20026;-78
2022/03/24 09:02:43;;;;;;;47.17;26.85;;;;;;;8.99;nan;103137.03;4983091;28;20019;-78
2022/03/24 09:05:09;;;;;;;44.90;24.85;;;;;;;9.12;nan;103131.88;4987346;28;20030;-79
2022/03/24 09:07:38;;;;;;;45.63;24.63;;;;;;;9.24;nan;103127.78;4977615;28;20370;-79
2022/03/24 09:10:06;;;;;;;48.60;24.80;;;;;;;9.40;nan;103121.44;4978561;28;20034;-79
2022/03/24 09:12:34;;;;;;;46.85;25.45;;;;;;;9.55;nan;103132.19;4986727;28;20041;-79
2022/03/24 09:15:00;;;;;;;48.47;27.17;;;;;;;9.71;nan;103129.31;4986291;28;20022;-79
2022/03/24 09:17:26;;;;;;;50.40;25.13;;;;;;;9.87;nan;103131.78;4984592;28;20026;-78
2022/03/24 09:19:52;;;;;;;45.08;25.17;;;;;;;10.05;nan;103128.72;4981330;28;20489;-79
2022/03/24 09:22:17;;;;;;;41.20;23.75;;;;;;;10.19;nan;103122.53;4978832;28;20030;-79
2022/03/24 09:24:43;;;;;;;45.03;24.00;;;;;;;10.35;nan;103126.03;4977503;28;20034;-79
2022/03/24 09:27:08;;;;;;;45.03;23.92;;;;;;;10.50;nan;103126.84;4980395;28;20389;-78
2022/03/24 09:29:35;;;;;;;43.17;24.20;;;;;;;10.59;nan;103128.38;4978418;28;20030;-78
2022/03/24 09:32:01;;;;;;;41.25;22.80;;;;;;;10.63;nan;103139.56;4980145;28;20030;-79
2022/03/24 09:34:26;;;;;;;46.28;24.23;;;;;;;10.76;nan;103134.31;4974646;28;20574;-80
2022/03/24 09:36:52;;;;;;;45.17;24.88;;;;;;;10.93;nan;103134.91;4981092;28;20027;-79
2022/03/24 09:39:19;;;;;;;46.65;25.02;;;;;;;11.09;nan;103134.63;4983310;28;20058;-79
2022/03/24 09:41:47;;;;;;;49.08;24.08;;;;;;;11.28;nan;103127.78;4978714;28;20066;-79
2022/03/24 09:44:14;;;;;;;38.97;22.75;;;;;;;11.45;nan;103126.44;4983950;28;20030;-79
2022/03/24 09:46:41;;;;;;;43.08;23.02;;;;;;;11.57;nan;103130.25;4993733;23;20134;-45
2022/03/24 09:49:10;;;;;;;38.90;23.98;;;;;;;11.73;nan;103127.28;4967475;28;20038;-45
2022/03/24 09:51:39;;;;;;;40.10;22.90;;;;;;;11.90;nan;103122.44;4967865;28;20361;-46
2022/03/24 09:54:07;;;;;;;38.80;22.90;;;;;;;12.09;nan;103120.88;4968088;28;20038;-45
2022/03/24 09:56:32;;;;;;;40.78;22.92;;;;;;;12.27;nan;103123.84;4948100;28;20432;-46
2022/03/24 09:58:58;;;;;;;40.97;22.88;;;;;;;12.45;nan;103125.13;4946198;28;20033;-45
2022/03/24 10:01:24;;;;;;;38.50;22.60;;;;;;;12.63;nan;103120.00;4949148;28;20408;-46
2022/03/24 10:04:16;;;;;;;39.60;21.60;;;;;;;12.73;nan;103120.41;4948575;28;20388;-46
2022/03/24 10:07:03;;;;;;;39.10;20.90;;;;;;;12.87;nan;103123.97;4940040;28;20039;-46
2022/03/24 10:09:42;;;;;;;37.25;21.25;;;;;;;12.96;nan;103122.75;4944039;28;20043;-46
2022/03/24 10:12:17;;;;;;;39.65;22.10;;;;;;;13.06;nan;103114.25;4942742;28;20031;-45
2022/03/24 10:14:43;;;;;;;;;;;;;;;13.06;nan;103119.63;4945424;28;21468;-46
2022/03/24 10:17:10;;;;;;;35.42;21.17;;;;;;;13.28;nan;103116.56;4945758;28;19914;-46
2022/03/24 10:19:36;;;;;;;38.47;20.15;;;;;;;13.46;nan;103121.28;4945073;28;20054;-46
2022/03/24 10:22:10;;;;;;;35.25;19.60;;;;;;;13.62;nan;103117.31;4943218;28;20516;-45
2022/03/24 10:24:41;;;;;;;34.28;19.27;;;;;;;13.71;nan;103121.47;4948032;28;20034;-45
2022/03/24 10:27:08;;;;;;;33.90;19.70;;;;;;;13.81;nan;103124.53;4944632;28;20027;-47
2022/03/24 10:29:35;;;;;;;35.65;18.20;;;;;;;13.93;nan;103118.50;4943729;28;20383;-45
2022/03/24 10:32:14;;;;;;;31.30;17.83;;;;;;;13.96;nan;103118.06;4947123;28;20030;-47
2022/03/24 10:34:48;;;;;;;27.30;16.02;;;;;;;14.02;nan;103118.06;4942335;28;20478;-45
2022/03/24 10:37:19;;;;;;;29.65;16.55;;;;;;;14.12;nan;103118.41;4943554;28;20457;-47
2022/03/24 10:40:14;;;;;;;28.63;16.50;;;;;;;14.12;nan;103118.41;4946612;28;20552;-46
2022/03/24 10:42:41;;;;;;;26.07;15.20;;;;;;;14.30;nan;103114.19;4935106;28;20039;-48
2022/03/24 10:45:13;;;;;;;26.73;16.35;;;;;;;14.49;nan;103115.97;4947367;28;20318;-45
2022/03/24 10:47:46;;;;;;;30.77;16.70;;;;;;;14.71;nan;103106.47;4946308;28;20046;-46
2022/03/24 10:50:27;;;;;;;29.45;17.30;;;;;;;14.80;nan;103104.34;4944583;28;20477;-45
2022/03/24 10:52:53;;;;;;;30.02;17.67;;;;;;;14.92;nan;103102.63;4943571;28;20035;-46
2022/03/24 10:55:30;;;;;;;27.25;15.75;;;;;;;14.82;nan;103097.69;4940046;28;20042;-46
2022/03/24 10:57:58;;;;;;;29.58;17.30;;;;;;;14.89;nan;103103.03;4946005;28;20455;-46
2022/03/24 11:00:24;;;;;;;29.33;16.35;;;;;;;15.03;nan;103093.78;4941489;28;20067;-44
2022/03/24 11:02:49;;;;;;;33.05;17.58;;;;;;;15.06;nan;103096.03;4943906;28;20015;-46
2022/03/24 11:05:15;;;;;;;27.00;16.13;;;;;;;15.20;nan;103082.41;4947815;28;20400;-47
2022/03/24 11:07:40;;;;;;;28.13;17.02;;;;;;;15.36;nan;103079.97;4942080;28;20027;-46
2022/03/24 11:10:13;;;;;;;25.63;15.35;;;;;;;15.48;nan;103079.25;4943577;28;20434;-46
2022/03/24 11:12:39;;;;;;;27.60;15.93;;;;;;;15.60;nan;103072.88;4941042;28;20023;-45
2022/03/24 11:15:07;;;;;;;27.80;15.90;;;;;;;15.73;nan;103077.31;4942696;28;20035;-45
2022/03/24 11:17:39;;;;;;;27.75;15.90;;;;;;;15.87;nan;103072.59;4943929;28;20027;-46
2022/03/24 11:20:22;;;;;;;29.95;15.98;;;;;;;16.00;nan;103072.44;4939892;28;20032;-45
2022/03/24 11:23:09;;;;;;;29.23;16.02;;;;;;;16.10;nan;103077.28;4941933;28;20027;-47
2022/03/24 11:25:35;;;;;;;25.63;16.45;;;;;;;16.29;nan;103076.19;4947041;28;20392;-46
2022/03/24 11:28:06;;;;;;;32.50;16.52;;;;;;;16.46;nan;103068.22;4946493;28;20035;-46
2022/03/24 11:30:34;;;;;;;26.75;16.05;;;;;;;16.62;nan;103063.00;4946663;28;20405;-46
2022/03/24 11:33:03;;;;;;;26.00;15.60;;;;;;;16.73;nan;103060.56;4946893;28;20547;-47
2022/03/24 11:35:28;;;;;;;25.88;14.43;;;;;;;16.74;nan;103063.03;4945183;28;20031;-46